sensor_id;sensor_type;location;lat;lon;timestamp;P1;durP1;ratioP1;P2;durP2;ratioP2
20002;SDS011;10162;41.600;23.806;2023-07-24T00:02:07;9.73;;;6.27;;
20002;SDS011;10162;41.600;23.806;2023-07-24T00:04:41;11.87;;;7.13;;
20002;SDS011;10162;41.600;23.806;2023-07-24T00:07:08;10.07;;;6.83;;
20002;SDS011;10162;41.600;23.806;2023-07-24T00:09:34;13.67;;;6.43;;
20002;SDS011;10162;41.600;23.806;2023-07-24T00:12:01;12.03;;;6.50;;
20002;SDS011;10162;41.600;23.806;2023-07-24T00:17:03;15.73;;;6.90;;
20002;SDS011;10162;41.600;23.806;2023-07-24T00:19:29;14.20;;;6.70;;
20002;SDS011;10162;41.600;23.806;2023-07-24T00:21:55;10.67;;;6.43;;
20002;SDS011;10162;41.600;23.806;2023-07-24T00:24:31;10.37;;;6.70;;
20002;SDS011;10162;41.600;23.806;2023-07-24T00:26:57;10.23;;;6.87;;
20002;SDS011;10162;41.600;23.806;2023-07-24T00:29:23;11.33;;;6.70;;
20002;SDS011;10162;41.600;23.806;2023-07-24T00:31:50;9.17;;;6.63;;
20002;SDS011;10162;41.600;23.806;2023-07-24T00:37:19;10.57;;;7.00;;
20002;SDS011;10162;41.600;23.806;2023-07-24T00:39:45;9.77;;;6.77;;
20002;SDS011;10162;41.600;23.806;2023-07-24T00:42:11;12.67;;;6.90;;
20002;SDS011;10162;41.600;23.806;2023-07-24T00:44:37;9.67;;;6.40;;
20002;SDS011;10162;41.600;23.806;2023-07-24T00:47:04;11.17;;;6.93;;
20002;SDS011;10162;41.600;23.806;2023-07-24T00:49:30;11.53;;;7.13;;
20002;SDS011;10162;41.600;23.806;2023-07-24T00:51:56;11.27;;;7.43;;
20002;SDS011;10162;41.600;23.806;2023-07-24T00:54:26;10.77;;;6.73;;
20002;SDS011;10162;41.600;23.806;2023-07-24T00:56:58;11.43;;;7.13;;
20002;SDS011;10162;41.600;23.806;2023-07-24T00:59:24;12.70;;;7.03;;
20002;SDS011;10162;41.600;23.806;2023-07-24T01:01:51;9.97;;;7.10;;
20002;SDS011;10162;41.600;23.806;2023-07-24T01:07:37;11.57;;;6.53;;
20002;SDS011;10162;41.600;23.806;2023-07-24T01:10:03;9.90;;;6.80;;
20002;SDS011;10162;41.600;23.806;2023-07-24T01:12:36;10.63;;;7.13;;
20002;SDS011;10162;41.600;23.806;2023-07-24T01:18:11;12.43;;;7.67;;
20002;SDS011;10162;41.600;23.806;2023-07-24T01:20:57;10.13;;;7.23;;
20002;SDS011;10162;41.600;23.806;2023-07-24T01:26:29;11.77;;;7.00;;
20002;SDS011;10162;41.600;23.806;2023-07-24T01:28:56;11.33;;;6.87;;
20002;SDS011;10162;41.600;23.806;2023-07-24T01:31:21;13.03;;;7.47;;
20002;SDS011;10162;41.600;23.806;2023-07-24T01:33:51;9.00;;;6.60;;
20002;SDS011;10162;41.600;23.806;2023-07-24T01:36:17;13.80;;;7.73;;
20002;SDS011;10162;41.600;23.806;2023-07-24T01:38:45;12.67;;;7.17;;
20002;SDS011;10162;41.600;23.806;2023-07-24T01:41:13;10.53;;;7.13;;
20002;SDS011;10162;41.600;23.806;2023-07-24T01:46:15;11.33;;;6.87;;
20002;SDS011;10162;41.600;23.806;2023-07-24T01:48:42;12.67;;;7.03;;
20002;SDS011;10162;41.600;23.806;2023-07-24T01:51:07;11.70;;;7.17;;
20002;SDS011;10162;41.600;23.806;2023-07-24T01:56:35;11.67;;;7.17;;
20002;SDS011;10162;41.600;23.806;2023-07-24T01:59:01;11.70;;;7.10;;
20002;SDS011;10162;41.600;23.806;2023-07-24T02:01:28;13.40;;;7.40;;
20002;SDS011;10162;41.600;23.806;2023-07-24T02:03:53;11.60;;;6.50;;
20002;SDS011;10162;41.600;23.806;2023-07-24T02:06:20;12.57;;;7.07;;
20002;SDS011;10162;41.600;23.806;2023-07-24T02:08:46;13.97;;;7.00;;
20002;SDS011;10162;41.600;23.806;2023-07-24T02:11:17;11.10;;;6.93;;
20002;SDS011;10162;41.600;23.806;2023-07-24T02:13:48;12.43;;;7.40;;
20002;SDS011;10162;41.600;23.806;2023-07-24T02:16:14;13.83;;;7.70;;
20002;SDS011;10162;41.600;23.806;2023-07-24T02:18:44;12.13;;;7.30;;
20002;SDS011;10162;41.600;23.806;2023-07-24T02:21:09;13.17;;;7.90;;
20002;SDS011;10162;41.600;23.806;2023-07-24T02:26:20;12.83;;;7.40;;
20002;SDS011;10162;41.600;23.806;2023-07-24T02:28:46;10.27;;;6.83;;
20002;SDS011;10162;41.600;23.806;2023-07-24T02:31:13;12.20;;;7.07;;
20002;SDS011;10162;41.600;23.806;2023-07-24T02:36:12;10.57;;;6.80;;
20002;SDS011;10162;41.600;23.806;2023-07-24T02:38:40;11.80;;;7.23;;
20002;SDS011;10162;41.600;23.806;2023-07-24T02:41:06;9.40;;;6.80;;
20002;SDS011;10162;41.600;23.806;2023-07-24T02:46:22;10.83;;;7.30;;
20002;SDS011;10162;41.600;23.806;2023-07-24T02:48:51;12.13;;;7.77;;
20002;SDS011;10162;41.600;23.806;2023-07-24T02:51:17;11.83;;;7.30;;
20002;SDS011;10162;41.600;23.806;2023-07-24T02:56:36;14.00;;;7.23;;
20002;SDS011;10162;41.600;23.806;2023-07-24T02:59:02;10.33;;;6.80;;
20002;SDS011;10162;41.600;23.806;2023-07-24T03:01:28;11.97;;;8.03;;
20002;SDS011;10162;41.600;23.806;2023-07-24T03:03:57;12.60;;;7.43;;
20002;SDS011;10162;41.600;23.806;2023-07-24T03:06:25;15.50;;;8.10;;
20002;SDS011;10162;41.600;23.806;2023-07-24T03:08:51;9.80;;;6.73;;
20002;SDS011;10162;41.600;23.806;2023-07-24T03:11:16;12.87;;;8.13;;
20002;SDS011;10162;41.600;23.806;2023-07-24T03:13:42;13.30;;;7.40;;
20002;SDS011;10162;41.600;23.806;2023-07-24T03:16:08;13.43;;;7.37;;
20002;SDS011;10162;41.600;23.806;2023-07-24T03:18:34;13.63;;;7.53;;
20002;SDS011;10162;41.600;23.806;2023-07-24T03:20:59;12.80;;;8.10;;
20002;SDS011;10162;41.600;23.806;2023-07-24T03:23:25;13.03;;;7.60;;
20002;SDS011;10162;41.600;23.806;2023-07-24T03:25:51;12.33;;;7.10;;
20002;SDS011;10162;41.600;23.806;2023-07-24T03:28:17;13.80;;;7.93;;
20002;SDS011;10162;41.600;23.806;2023-07-24T03:30:43;14.80;;;7.73;;
20002;SDS011;10162;41.600;23.806;2023-07-24T03:33:09;10.77;;;7.03;;
20002;SDS011;10162;41.600;23.806;2023-07-24T03:35:35;13.90;;;8.40;;
20002;SDS011;10162;41.600;23.806;2023-07-24T03:38:02;10.80;;;7.43;;
20002;SDS011;10162;41.600;23.806;2023-07-24T03:40:29;10.77;;;7.13;;
20002;SDS011;10162;41.600;23.806;2023-07-24T03:42:56;12.43;;;7.03;;
20002;SDS011;10162;41.600;23.806;2023-07-24T03:45:24;12.17;;;7.60;;
20002;SDS011;10162;41.600;23.806;2023-07-24T03:47:50;11.77;;;7.73;;
20002;SDS011;10162;41.600;23.806;2023-07-24T03:50:16;13.40;;;7.77;;
20002;SDS011;10162;41.600;23.806;2023-07-24T03:52:42;12.60;;;7.67;;
20002;SDS011;10162;41.600;23.806;2023-07-24T03:55:09;12.53;;;8.00;;
20002;SDS011;10162;41.600;23.806;2023-07-24T03:57:35;13.97;;;7.60;;
20002;SDS011;10162;41.600;23.806;2023-07-24T04:00:02;10.47;;;7.03;;
20002;SDS011;10162;41.600;23.806;2023-07-24T04:02:37;13.93;;;7.70;;
20002;SDS011;10162;41.600;23.806;2023-07-24T04:05:05;12.00;;;7.60;;
20002;SDS011;10162;41.600;23.806;2023-07-24T04:07:31;13.27;;;7.53;;
20002;SDS011;10162;41.600;23.806;2023-07-24T04:09:57;12.90;;;8.40;;
20002;SDS011;10162;41.600;23.806;2023-07-24T04:12:22;12.87;;;7.47;;
20002;SDS011;10162;41.600;23.806;2023-07-24T04:15:06;13.60;;;8.33;;
20002;SDS011;10162;41.600;23.806;2023-07-24T04:17:33;13.17;;;7.93;;
20002;SDS011;10162;41.600;23.806;2023-07-24T04:20:01;14.20;;;7.90;;
20002;SDS011;10162;41.600;23.806;2023-07-24T04:22:26;10.30;;;7.07;;
20002;SDS011;10162;41.600;23.806;2023-07-24T04:28:24;13.33;;;7.40;;
20002;SDS011;10162;41.600;23.806;2023-07-24T04:30:50;12.50;;;7.67;;
20002;SDS011;10162;41.600;23.806;2023-07-24T04:33:15;17.37;;;8.70;;
20002;SDS011;10162;41.600;23.806;2023-07-24T04:38:29;14.50;;;8.70;;
20002;SDS011;10162;41.600;23.806;2023-07-24T04:40:55;16.97;;;9.17;;
20002;SDS011;10162;41.600;23.806;2023-07-24T04:46:24;16.40;;;9.00;;
20002;SDS011;10162;41.600;23.806;2023-07-24T04:48:49;18.00;;;9.93;;
20002;SDS011;10162;41.600;23.806;2023-07-24T04:51:15;20.00;;;9.77;;
20002;SDS011;10162;41.600;23.806;2023-07-24T04:53:56;14.57;;;8.83;;
20002;SDS011;10162;41.600;23.806;2023-07-24T04:56:23;15.40;;;9.23;;
20002;SDS011;10162;41.600;23.806;2023-07-24T04:58:48;15.73;;;8.73;;
20002;SDS011;10162;41.600;23.806;2023-07-24T05:01:15;15.27;;;8.73;;
20002;SDS011;10162;41.600;23.806;2023-07-24T05:06:55;12.40;;;8.47;;
20002;SDS011;10162;41.600;23.806;2023-07-24T05:09:20;12.57;;;8.60;;
20002;SDS011;10162;41.600;23.806;2023-07-24T05:11:46;14.67;;;7.77;;
20002;SDS011;10162;41.600;23.806;2023-07-24T05:16:59;15.77;;;8.23;;
20002;SDS011;10162;41.600;23.806;2023-07-24T05:19:24;16.30;;;8.93;;
20002;SDS011;10162;41.600;23.806;2023-07-24T05:21:50;16.03;;;9.70;;
20002;SDS011;10162;41.600;23.806;2023-07-24T05:24:16;14.97;;;8.97;;
20002;SDS011;10162;41.600;23.806;2023-07-24T05:26:41;12.93;;;8.37;;
20002;SDS011;10162;41.600;23.806;2023-07-24T05:29:07;18.30;;;9.20;;
20002;SDS011;10162;41.600;23.806;2023-07-24T05:31:34;12.13;;;8.20;;
20002;SDS011;10162;41.600;23.806;2023-07-24T05:36:55;12.10;;;7.97;;
20002;SDS011;10162;41.600;23.806;2023-07-24T05:39:21;15.35;;;9.15;;
20002;SDS011;10162;41.600;23.806;2023-07-24T05:41:48;14.50;;;8.30;;
20002;SDS011;10162;41.600;23.806;2023-07-24T05:44:14;14.70;;;8.57;;
20002;SDS011;10162;41.600;23.806;2023-07-24T05:49:31;14.93;;;8.85;;
20002;SDS011;10162;41.600;23.806;2023-07-24T05:51:56;14.05;;;9.55;;
20002;SDS011;10162;41.600;23.806;2023-07-24T05:54:30;15.05;;;9.65;;
20002;SDS011;10162;41.600;23.806;2023-07-24T05:56:56;14.35;;;9.07;;
20002;SDS011;10162;41.600;23.806;2023-07-24T05:59:22;13.98;;;9.43;;
20002;SDS011;10162;41.600;23.806;2023-07-24T06:01:47;14.10;;;9.02;;
20002;SDS011;10162;41.600;23.806;2023-07-24T06:04:13;16.67;;;9.50;;
20002;SDS011;10162;41.600;23.806;2023-07-24T06:06:40;15.32;;;9.05;;
20002;SDS011;10162;41.600;23.806;2023-07-24T06:09:06;14.55;;;8.98;;
20002;SDS011;10162;41.600;23.806;2023-07-24T06:11:32;15.48;;;9.88;;
20002;SDS011;10162;41.600;23.806;2023-07-24T06:14:00;19.38;;;10.15;;
20002;SDS011;10162;41.600;23.806;2023-07-24T06:16:26;20.05;;;11.75;;
20002;SDS011;10162;41.600;23.806;2023-07-24T06:18:52;16.58;;;10.27;;
20002;SDS011;10162;41.600;23.806;2023-07-24T06:21:18;16.70;;;10.38;;
20002;SDS011;10162;41.600;23.806;2023-07-24T06:23:44;21.85;;;13.70;;
20002;SDS011;10162;41.600;23.806;2023-07-24T06:26:10;22.55;;;12.70;;
20002;SDS011;10162;41.600;23.806;2023-07-24T06:28:35;18.83;;;11.98;;
20002;SDS011;10162;41.600;23.806;2023-07-24T06:31:03;18.67;;;12.23;;
20002;SDS011;10162;41.600;23.806;2023-07-24T06:33:28;18.00;;;11.32;;
20002;SDS011;10162;41.600;23.806;2023-07-24T06:35:54;14.60;;;11.10;;
20002;SDS011;10162;41.600;23.806;2023-07-24T06:38:20;19.83;;;11.65;;
20002;SDS011;10162;41.600;23.806;2023-07-24T06:40:46;17.45;;;10.13;;
20002;SDS011;10162;41.600;23.806;2023-07-24T06:43:12;20.65;;;10.65;;
20002;SDS011;10162;41.600;23.806;2023-07-24T06:45:38;17.25;;;10.50;;
20002;SDS011;10162;41.600;23.806;2023-07-24T06:48:04;15.55;;;10.80;;
20002;SDS011;10162;41.600;23.806;2023-07-24T06:50:29;17.92;;;10.50;;
20002;SDS011;10162;41.600;23.806;2023-07-24T06:52:55;16.90;;;10.85;;
20002;SDS011;10162;41.600;23.806;2023-07-24T06:55:21;17.13;;;9.88;;
20002;SDS011;10162;41.600;23.806;2023-07-24T06:57:46;22.55;;;11.80;;
20002;SDS011;10162;41.600;23.806;2023-07-24T07:00:13;15.25;;;10.30;;
20002;SDS011;10162;41.600;23.806;2023-07-24T07:02:39;16.15;;;10.43;;
20002;SDS011;10162;41.600;23.806;2023-07-24T07:05:06;16.48;;;11.20;;
20002;SDS011;10162;41.600;23.806;2023-07-24T07:07:32;18.83;;;10.98;;
20002;SDS011;10162;41.600;23.806;2023-07-24T07:09:58;18.02;;;11.20;;
20002;SDS011;10162;41.600;23.806;2023-07-24T07:12:23;22.70;;;11.82;;
20002;SDS011;10162;41.600;23.806;2023-07-24T07:17:20;19.33;;;11.30;;
20002;SDS011;10162;41.600;23.806;2023-07-24T07:19:45;14.88;;;10.57;;
20002;SDS011;10162;41.600;23.806;2023-07-24T07:22:11;20.08;;;11.43;;
20002;SDS011;10162;41.600;23.806;2023-07-24T07:24:39;17.00;;;10.93;;
20002;SDS011;10162;41.600;23.806;2023-07-24T07:27:04;18.52;;;11.43;;
20002;SDS011;10162;41.600;23.806;2023-07-24T07:29:30;16.73;;;11.48;;
20002;SDS011;10162;41.600;23.806;2023-07-24T07:31:56;16.63;;;11.60;;
20002;SDS011;10162;41.600;23.806;2023-07-24T07:34:24;17.60;;;11.95;;
20002;SDS011;10162;41.600;23.806;2023-07-24T07:36:50;17.52;;;11.35;;
20002;SDS011;10162;41.600;23.806;2023-07-24T07:39:16;18.45;;;11.75;;
20002;SDS011;10162;41.600;23.806;2023-07-24T07:41:42;17.90;;;11.57;;
20002;SDS011;10162;41.600;23.806;2023-07-24T07:44:09;18.55;;;10.82;;
20002;SDS011;10162;41.600;23.806;2023-07-24T07:46:34;16.60;;;10.80;;
20002;SDS011;10162;41.600;23.806;2023-07-24T07:49:01;20.42;;;12.73;;
20002;SDS011;10162;41.600;23.806;2023-07-24T07:51:26;21.40;;;12.38;;
20002;SDS011;10162;41.600;23.806;2023-07-24T07:53:52;25.75;;;17.45;;
20002;SDS011;10162;41.600;23.806;2023-07-24T07:56:18;25.10;;;14.70;;
20002;SDS011;10162;41.600;23.806;2023-07-24T07:58:44;20.35;;;12.35;;
20002;SDS011;10162;41.600;23.806;2023-07-24T08:01:10;23.02;;;13.00;;
20002;SDS011;10162;41.600;23.806;2023-07-24T08:03:37;15.10;;;11.43;;
20002;SDS011;10162;41.600;23.806;2023-07-24T08:06:02;16.63;;;10.65;;
20002;SDS011;10162;41.600;23.806;2023-07-24T08:08:29;16.77;;;10.90;;
20002;SDS011;10162;41.600;23.806;2023-07-24T08:10:55;14.77;;;10.68;;
20002;SDS011;10162;41.600;23.806;2023-07-24T08:13:21;15.85;;;10.80;;
20002;SDS011;10162;41.600;23.806;2023-07-24T08:15:46;15.15;;;11.75;;
20002;SDS011;10162;41.600;23.806;2023-07-24T08:18:12;17.92;;;10.80;;
20002;SDS011;10162;41.600;23.806;2023-07-24T08:20:38;16.83;;;11.73;;
20002;SDS011;10162;41.600;23.806;2023-07-24T08:23:07;15.20;;;11.27;;
20002;SDS011;10162;41.600;23.806;2023-07-24T08:25:37;16.92;;;11.40;;
20002;SDS011;10162;41.600;23.806;2023-07-24T08:28:02;16.85;;;10.45;;
20002;SDS011;10162;41.600;23.806;2023-07-24T08:30:30;13.48;;;10.50;;
20002;SDS011;10162;41.600;23.806;2023-07-24T08:32:57;14.25;;;10.02;;
20002;SDS011;10162;41.600;23.806;2023-07-24T08:35:25;13.77;;;10.40;;
20002;SDS011;10162;41.600;23.806;2023-07-24T08:37:52;13.18;;;9.88;;
20002;SDS011;10162;41.600;23.806;2023-07-24T08:40:18;13.90;;;9.60;;
20002;SDS011;10162;41.600;23.806;2023-07-24T08:42:45;14.45;;;10.07;;
20002;SDS011;10162;41.600;23.806;2023-07-24T08:45:17;15.05;;;9.98;;
20002;SDS011;10162;41.600;23.806;2023-07-24T08:47:44;23.77;;;10.60;;
20002;SDS011;10162;41.600;23.806;2023-07-24T08:50:11;12.82;;;9.45;;
20002;SDS011;10162;41.600;23.806;2023-07-24T08:52:38;18.90;;;10.20;;
20002;SDS011;10162;41.600;23.806;2023-07-24T08:55:05;13.80;;;9.77;;
20002;SDS011;10162;41.600;23.806;2023-07-24T08:57:31;15.07;;;9.75;;
20002;SDS011;10162;41.600;23.806;2023-07-24T08:59:57;13.45;;;9.55;;
20002;SDS011;10162;41.600;23.806;2023-07-24T09:02:23;16.30;;;10.15;;
20002;SDS011;10162;41.600;23.806;2023-07-24T09:04:50;14.50;;;9.27;;
20002;SDS011;10162;41.600;23.806;2023-07-24T09:07:16;13.77;;;9.73;;
20002;SDS011;10162;41.600;23.806;2023-07-24T09:09:41;14.00;;;10.18;;
20002;SDS011;10162;41.600;23.806;2023-07-24T09:12:07;13.52;;;9.85;;
20002;SDS011;10162;41.600;23.806;2023-07-24T09:14:33;16.30;;;9.85;;
20002;SDS011;10162;41.600;23.806;2023-07-24T09:19:37;13.48;;;9.18;;
20002;SDS011;10162;41.600;23.806;2023-07-24T09:22:15;13.65;;;9.95;;
20002;SDS011;10162;41.600;23.806;2023-07-24T09:24:56;13.13;;;10.07;;
20002;SDS011;10162;41.600;23.806;2023-07-24T09:27:27;15.18;;;9.32;;
20002;SDS011;10162;41.600;23.806;2023-07-24T09:29:56;12.40;;;9.45;;
20002;SDS011;10162;41.600;23.806;2023-07-24T09:32:23;14.20;;;9.70;;
20002;SDS011;10162;41.600;23.806;2023-07-24T09:34:50;14.52;;;9.52;;
20002;SDS011;10162;41.600;23.806;2023-07-24T09:37:23;11.82;;;9.00;;
20002;SDS011;10162;41.600;23.806;2023-07-24T09:39:49;16.80;;;9.20;;
20002;SDS011;10162;41.600;23.806;2023-07-24T09:42:15;13.57;;;9.35;;
20002;SDS011;10162;41.600;23.806;2023-07-24T09:44:40;13.63;;;8.95;;
20002;SDS011;10162;41.600;23.806;2023-07-24T09:47:06;13.55;;;9.32;;
20002;SDS011;10162;41.600;23.806;2023-07-24T09:49:32;11.23;;;8.98;;
20002;SDS011;10162;41.600;23.806;2023-07-24T09:51:59;13.00;;;9.00;;
20002;SDS011;10162;41.600;23.806;2023-07-24T09:54:34;11.85;;;8.50;;
20002;SDS011;10162;41.600;23.806;2023-07-24T09:57:07;12.55;;;8.48;;
20002;SDS011;10162;41.600;23.806;2023-07-24T09:59:34;11.98;;;9.25;;
20002;SDS011;10162;41.600;23.806;2023-07-24T10:02:01;12.68;;;8.52;;
20002;SDS011;10162;41.600;23.806;2023-07-24T10:04:29;11.80;;;7.88;;
20002;SDS011;10162;41.600;23.806;2023-07-24T10:06:57;12.82;;;9.30;;
20002;SDS011;10162;41.600;23.806;2023-07-24T10:09:23;13.25;;;9.23;;
20002;SDS011;10162;41.600;23.806;2023-07-24T10:11:49;10.13;;;7.60;;
20002;SDS011;10162;41.600;23.806;2023-07-24T10:14:15;12.13;;;9.07;;
20002;SDS011;10162;41.600;23.806;2023-07-24T10:16:44;15.95;;;8.95;;
20002;SDS011;10162;41.600;23.806;2023-07-24T10:19:14;12.63;;;9.25;;
20002;SDS011;10162;41.600;23.806;2023-07-24T10:21:44;15.13;;;10.40;;
20002;SDS011;10162;41.600;23.806;2023-07-24T10:24:12;11.18;;;8.60;;
20002;SDS011;10162;41.600;23.806;2023-07-24T10:26:37;14.20;;;9.10;;
20002;SDS011;10162;41.600;23.806;2023-07-24T10:29:03;13.50;;;9.18;;
20002;SDS011;10162;41.600;23.806;2023-07-24T10:31:29;13.07;;;9.73;;
20002;SDS011;10162;41.600;23.806;2023-07-24T10:36:36;14.80;;;9.50;;
20002;SDS011;10162;41.600;23.806;2023-07-24T10:39:12;13.35;;;9.32;;
20002;SDS011;10162;41.600;23.806;2023-07-24T10:41:39;15.65;;;9.07;;
20002;SDS011;10162;41.600;23.806;2023-07-24T10:46:58;13.30;;;9.88;;
20002;SDS011;10162;41.600;23.806;2023-07-24T10:49:24;15.35;;;9.25;;
20002;SDS011;10162;41.600;23.806;2023-07-24T10:51:54;24.05;;;10.18;;
20002;SDS011;10162;41.600;23.806;2023-07-24T10:54:23;12.43;;;9.00;;
20002;SDS011;10162;41.600;23.806;2023-07-24T10:56:49;16.00;;;10.00;;
20002;SDS011;10162;41.600;23.806;2023-07-24T10:59:16;12.35;;;9.35;;
20002;SDS011;10162;41.600;23.806;2023-07-24T11:01:41;15.90;;;9.75;;
20002;SDS011;10162;41.600;23.806;2023-07-24T11:07:00;16.27;;;10.05;;
20002;SDS011;10162;41.600;23.806;2023-07-24T11:09:36;12.27;;;9.45;;
20002;SDS011;10162;41.600;23.806;2023-07-24T11:12:11;14.15;;;9.95;;
20002;SDS011;10162;41.600;23.806;2023-07-24T11:17:40;12.07;;;9.38;;
20002;SDS011;10162;41.600;23.806;2023-07-24T11:22:41;13.25;;;8.73;;
20002;SDS011;10162;41.600;23.806;2023-07-24T11:25:24;14.20;;;9.57;;
20002;SDS011;10162;41.600;23.806;2023-07-24T11:27:50;12.25;;;9.40;;
20002;SDS011;10162;41.600;23.806;2023-07-24T11:30:19;14.75;;;9.20;;
20002;SDS011;10162;41.600;23.806;2023-07-24T11:32:48;12.65;;;9.00;;
20002;SDS011;10162;41.600;23.806;2023-07-24T11:38:21;12.15;;;7.90;;
20002;SDS011;10162;41.600;23.806;2023-07-24T11:40:47;13.32;;;8.48;;
20002;SDS011;10162;41.600;23.806;2023-07-24T11:43:14;10.93;;;8.23;;
20002;SDS011;10162;41.600;23.806;2023-07-24T11:45:48;12.85;;;8.23;;
20002;SDS011;10162;41.600;23.806;2023-07-24T11:48:19;11.20;;;8.05;;
20002;SDS011;10162;41.600;23.806;2023-07-24T11:50:49;12.68;;;7.80;;
20002;SDS011;10162;41.600;23.806;2023-07-24T11:53:31;13.57;;;8.43;;
20002;SDS011;10162;41.600;23.806;2023-07-24T11:55:59;15.18;;;9.55;;
20002;SDS011;10162;41.600;23.806;2023-07-24T11:58:27;13.57;;;8.95;;
20002;SDS011;10162;41.600;23.806;2023-07-24T12:00:54;12.20;;;8.45;;
20002;SDS011;10162;41.600;23.806;2023-07-24T12:03:21;14.68;;;9.80;;
20002;SDS011;10162;41.600;23.806;2023-07-24T12:05:49;12.60;;;9.32;;
20002;SDS011;10162;41.600;23.806;2023-07-24T12:08:16;13.02;;;9.10;;
20002;SDS011;10162;41.600;23.806;2023-07-24T12:10:44;12.60;;;8.82;;
20002;SDS011;10162;41.600;23.806;2023-07-24T12:13:10;13.93;;;8.85;;
20002;SDS011;10162;41.600;23.806;2023-07-24T12:15:40;12.98;;;8.95;;
20002;SDS011;10162;41.600;23.806;2023-07-24T12:18:06;12.05;;;8.00;;
20002;SDS011;10162;41.600;23.806;2023-07-24T12:23:05;15.27;;;8.10;;
20002;SDS011;10162;41.600;23.806;2023-07-24T12:25:38;14.63;;;8.70;;
20002;SDS011;10162;41.600;23.806;2023-07-24T12:28:04;13.23;;;8.90;;
20002;SDS011;10162;41.600;23.806;2023-07-24T12:30:30;13.68;;;8.60;;
20002;SDS011;10162;41.600;23.806;2023-07-24T12:32:55;11.75;;;8.10;;
20002;SDS011;10162;41.600;23.806;2023-07-24T12:35:28;11.02;;;9.27;;
20002;SDS011;10162;41.600;23.806;2023-07-24T12:37:54;13.77;;;8.90;;
20002;SDS011;10162;41.600;23.806;2023-07-24T12:40:20;10.70;;;8.40;;
20002;SDS011;10162;41.600;23.806;2023-07-24T12:42:46;10.57;;;8.88;;
20002;SDS011;10162;41.600;23.806;2023-07-24T12:48:23;11.25;;;8.20;;
20002;SDS011;10162;41.600;23.806;2023-07-24T12:50:49;11.80;;;9.10;;
20002;SDS011;10162;41.600;23.806;2023-07-24T12:53:15;12.32;;;8.93;;
20002;SDS011;10162;41.600;23.806;2023-07-24T12:59:18;14.90;;;8.70;;
20002;SDS011;10162;41.600;23.806;2023-07-24T13:01:44;12.38;;;8.73;;
20002;SDS011;10162;41.600;23.806;2023-07-24T13:04:24;14.52;;;8.77;;
20002;SDS011;10162;41.600;23.806;2023-07-24T13:06:51;13.55;;;9.45;;
20002;SDS011;10162;41.600;23.806;2023-07-24T13:09:17;12.60;;;8.68;;
20002;SDS011;10162;41.600;23.806;2023-07-24T13:11:44;11.45;;;8.43;;
20002;SDS011;10162;41.600;23.806;2023-07-24T13:14:14;13.60;;;9.63;;
20002;SDS011;10162;41.600;23.806;2023-07-24T13:16:40;13.75;;;8.73;;
20002;SDS011;10162;41.600;23.806;2023-07-24T13:19:06;14.50;;;9.55;;
20002;SDS011;10162;41.600;23.806;2023-07-24T13:21:32;12.05;;;8.70;;
20002;SDS011;10162;41.600;23.806;2023-07-24T13:26:47;11.75;;;8.70;;
20002;SDS011;10162;41.600;23.806;2023-07-24T13:29:13;14.82;;;8.98;;
20002;SDS011;10162;41.600;23.806;2023-07-24T13:31:39;12.93;;;9.07;;
20002;SDS011;10162;41.600;23.806;2023-07-24T13:34:07;10.48;;;8.27;;
20002;SDS011;10162;41.600;23.806;2023-07-24T13:36:33;13.70;;;8.82;;
20002;SDS011;10162;41.600;23.806;2023-07-24T13:38:59;12.90;;;8.65;;
20002;SDS011;10162;41.600;23.806;2023-07-24T13:41:25;12.10;;;8.57;;
20002;SDS011;10162;41.600;23.806;2023-07-24T13:43:51;13.32;;;9.25;;
20002;SDS011;10162;41.600;23.806;2023-07-24T13:46:17;14.90;;;9.85;;
20002;SDS011;10162;41.600;23.806;2023-07-24T13:48:43;11.95;;;7.95;;
20002;SDS011;10162;41.600;23.806;2023-07-24T13:51:09;11.13;;;8.02;;
20002;SDS011;10162;41.600;23.806;2023-07-24T13:53:53;12.55;;;8.48;;
20002;SDS011;10162;41.600;23.806;2023-07-24T13:56:20;12.15;;;9.07;;
20002;SDS011;10162;41.600;23.806;2023-07-24T13:58:48;12.43;;;9.48;;
20002;SDS011;10162;41.600;23.806;2023-07-24T14:01:15;11.20;;;8.27;;
20002;SDS011;10162;41.600;23.806;2023-07-24T14:06:30;10.38;;;8.50;;
20002;SDS011;10162;41.600;23.806;2023-07-24T14:08:55;14.07;;;8.45;;
20002;SDS011;10162;41.600;23.806;2023-07-24T14:11:21;10.65;;;8.10;;
20002;SDS011;10162;41.600;23.806;2023-07-24T14:13:47;13.82;;;9.13;;
20002;SDS011;10162;41.600;23.806;2023-07-24T14:16:13;12.60;;;8.45;;
20002;SDS011;10162;41.600;23.806;2023-07-24T14:18:38;13.85;;;8.38;;
20002;SDS011;10162;41.600;23.806;2023-07-24T14:21:04;13.63;;;8.65;;
20002;SDS011;10162;41.600;23.806;2023-07-24T14:23:38;11.73;;;8.43;;
20002;SDS011;10162;41.600;23.806;2023-07-24T14:26:03;11.55;;;8.55;;
20002;SDS011;10162;41.600;23.806;2023-07-24T14:28:29;19.70;;;8.60;;
20002;SDS011;10162;41.600;23.806;2023-07-24T14:30:56;11.23;;;8.20;;
20002;SDS011;10162;41.600;23.806;2023-07-24T14:33:21;14.32;;;8.55;;
20002;SDS011;10162;41.600;23.806;2023-07-24T14:35:48;13.32;;;8.48;;
20002;SDS011;10162;41.600;23.806;2023-07-24T14:38:14;11.80;;;7.97;;
20002;SDS011;10162;41.600;23.806;2023-07-24T14:40:40;10.90;;;8.43;;
20002;SDS011;10162;41.600;23.806;2023-07-24T14:43:05;13.02;;;8.52;;
20002;SDS011;10162;41.600;23.806;2023-07-24T14:48:21;11.55;;;8.27;;
20002;SDS011;10162;41.600;23.806;2023-07-24T14:50:46;11.10;;;8.07;;
20002;SDS011;10162;41.600;23.806;2023-07-24T14:53:12;14.35;;;7.50;;
20002;SDS011;10162;41.600;23.806;2023-07-24T14:55:39;12.40;;;7.47;;
20002;SDS011;10162;41.600;23.806;2023-07-24T14:58:05;9.25;;;7.63;;
20002;SDS011;10162;41.600;23.806;2023-07-24T15:00:31;12.80;;;7.43;;
20002;SDS011;10162;41.600;23.806;2023-07-24T15:02:57;17.88;;;8.23;;
20002;SDS011;10162;41.600;23.806;2023-07-24T15:08:46;9.15;;;7.53;;
20002;SDS011;10162;41.600;23.806;2023-07-24T15:11:11;11.48;;;8.05;;
20002;SDS011;10162;41.600;23.806;2023-07-24T15:16:48;9.93;;;6.65;;
20002;SDS011;10162;41.600;23.806;2023-07-24T15:19:14;8.73;;;6.35;;
20002;SDS011;10162;41.600;23.806;2023-07-24T15:21:39;10.88;;;6.65;;
20002;SDS011;10162;41.600;23.806;2023-07-24T15:27:09;11.10;;;7.20;;
20002;SDS011;10162;41.600;23.806;2023-07-24T15:29:37;10.32;;;6.55;;
20002;SDS011;10162;41.600;23.806;2023-07-24T15:32:04;12.38;;;6.78;;
20002;SDS011;10162;41.600;23.806;2023-07-24T15:37:31;12.25;;;7.32;;
20002;SDS011;10162;41.600;23.806;2023-07-24T15:40:00;11.45;;;6.47;;
20002;SDS011;10162;41.600;23.806;2023-07-24T15:42:27;9.07;;;6.55;;
20002;SDS011;10162;41.600;23.806;2023-07-24T15:45:02;11.70;;;7.28;;
20002;SDS011;10162;41.600;23.806;2023-07-24T15:47:30;9.15;;;6.70;;
20002;SDS011;10162;41.600;23.806;2023-07-24T15:49:55;13.15;;;7.38;;
20002;SDS011;10162;41.600;23.806;2023-07-24T15:52:21;9.25;;;6.32;;
20002;SDS011;10162;41.600;23.806;2023-07-24T15:54:53;10.50;;;6.47;;
20002;SDS011;10162;41.600;23.806;2023-07-24T15:57:20;12.63;;;6.75;;
20002;SDS011;10162;41.600;23.806;2023-07-24T15:59:46;12.07;;;7.43;;
20002;SDS011;10162;41.600;23.806;2023-07-24T16:02:12;13.18;;;7.20;;
20002;SDS011;10162;41.600;23.806;2023-07-24T16:07:10;12.55;;;7.15;;